sensor_id;sensor_type;location;lat;lon;timestamp;temperature;humidity
16513;DHT22;8369;48.030;11.598;2023-08-21T00:00:30;21.50;99.90
16513;DHT22;8369;48.030;11.598;2023-08-21T00:02:55;21.50;99.90
16513;DHT22;8369;48.030;11.598;2023-08-21T00:05:21;21.50;99.90
16513;DHT22;8369;48.030;11.598;2023-08-21T00:07:47;21.50;99.90
16513;DHT22;8369;48.030;11.598;2023-08-21T00:10:16;21.50;99.90
16513;DHT22;8369;48.030;11.598;2023-08-21T00:12:42;21.40;99.90
16513;DHT22;8369;48.030;11.598;2023-08-21T00:15:09;21.40;99.90
16513;DHT22;8369;48.030;11.598;2023-08-21T00:17:35;21.40;99.90
16513;DHT22;8369;48.030;11.598;2023-08-21T00:20:01;21.40;99.90
16513;DHT22;8369;48.030;11.598;2023-08-21T00:22:28;21.30;99.90
16513;DHT22;8369;48.030;11.598;2023-08-21T00:24:53;21.30;99.90
16513;DHT22;8369;48.030;11.598;2023-08-21T00:27:19;21.20;99.90
16513;DHT22;8369;48.030;11.598;2023-08-21T00:29:45;21.20;99.90
16513;DHT22;8369;48.030;11.598;2023-08-21T00:32:11;21.20;99.90
16513;DHT22;8369;48.030;11.598;2023-08-21T00:34:38;21.10;99.90
16513;DHT22;8369;48.030;11.598;2023-08-21T00:37:04;21.10;99.90
16513;DHT22;8369;48.030;11.598;2023-08-21T00:39:36;21.10;99.90
16513;DHT22;8369;48.030;11.598;2023-08-21T00:42:01;21.10;99.90
16513;DHT22;8369;48.030;11.598;2023-08-21T00:44:27;21.10;99.90
16513;DHT22;8369;48.030;11.598;2023-08-21T00:46:53;21.00;99.90
16513;DHT22;8369;48.030;11.598;2023-08-21T00:49:20;21.00;99.90
16513;DHT22;8369;48.030;11.598;2023-08-21T00:51:47;21.00;99.90
16513;DHT22;8369;48.030;11.598;2023-08-21T00:54:17;20.90;99.90
16513;DHT22;8369;48.030;11.598;2023-08-21T00:56:43;20.90;99.90
16513;DHT22;8369;48.030;11.598;2023-08-21T00:59:14;20.90;99.90
16513;DHT22;8369;48.030;11.598;2023-08-21T01:01:46;20.90;99.90
16513;DHT22;8369;48.030;11.598;2023-08-21T01:04:20;20.90;99.90
16513;DHT22;8369;48.030;11.598;2023-08-21T01:06:48;20.80;99.90
16513;DHT22;8369;48.030;11.598;2023-08-21T01:09:29;20.80;99.90
16513;DHT22;8369;48.030;11.598;2023-08-21T01:15:01;20.80;99.90
16513;DHT22;8369;48.030;11.598;2023-08-21T01:17:34;20.80;99.90
16513;DHT22;8369;48.030;11.598;2023-08-21T01:20:03;20.80;99.90
16513;DHT22;8369;48.030;11.598;2023-08-21T01:22:36;20.70;99.90
16513;DHT22;8369;48.030;11.598;2023-08-21T01:25:04;20.70;99.90
16513;DHT22;8369;48.030;11.598;2023-08-21T01:27:34;20.60;99.90
16513;DHT22;8369;48.030;11.598;2023-08-21T01:30:01;20.60;99.90
16513;DHT22;8369;48.030;11.598;2023-08-21T01:33:08;20.60;99.90
16513;DHT22;8369;48.030;11.598;2023-08-21T01:35:28;20.60;99.90
16513;DHT22;8369;48.030;11.598;2023-08-21T01:37:55;20.60;99.90
16513;DHT22;8369;48.030;11.598;2023-08-21T01:40:29;20.60;99.90
16513;DHT22;8369;48.030;11.598;2023-08-21T01:42:55;20.60;99.90
16513;DHT22;8369;48.030;11.598;2023-08-21T01:45:21;20.60;99.90
16513;DHT22;8369;48.030;11.598;2023-08-21T01:47:47;20.50;99.90
16513;DHT22;8369;48.030;11.598;2023-08-21T01:50:14;20.50;99.90
16513;DHT22;8369;48.030;11.598;2023-08-21T01:52:40;20.40;99.90
16513;DHT22;8369;48.030;11.598;2023-08-21T01:55:06;20.40;99.90
16513;DHT22;8369;48.030;11.598;2023-08-21T01:57:35;20.40;99.90
16513;DHT22;8369;48.030;11.598;2023-08-21T02:00:02;20.40;99.90
16513;DHT22;8369;48.030;11.598;2023-08-21T02:02:30;20.40;99.90
16513;DHT22;8369;48.030;11.598;2023-08-21T02:04:56;20.40;99.90
16513;DHT22;8369;48.030;11.598;2023-08-21T02:07:22;20.30;99.90
16513;DHT22;8369;48.030;11.598;2023-08-21T02:09:48;20.30;99.90
16513;DHT22;8369;48.030;11.598;2023-08-21T02:12:14;20.30;99.90
16513;DHT22;8369;48.030;11.598;2023-08-21T02:14:40;20.20;99.90
16513;DHT22;8369;48.030;11.598;2023-08-21T02:17:06;20.20;99.90
16513;DHT22;8369;48.030;11.598;2023-08-21T02:19:32;20.20;99.90
16513;DHT22;8369;48.030;11.598;2023-08-21T02:21:58;20.20;99.90
16513;DHT22;8369;48.030;11.598;2023-08-21T02:24:24;20.20;99.90
16513;DHT22;8369;48.030;11.598;2023-08-21T02:26:52;20.20;99.90
16513;DHT22;8369;48.030;11.598;2023-08-21T02:29:18;20.20;99.90
16513;DHT22;8369;48.030;11.598;2023-08-21T02:31:44;20.10;99.90
16513;DHT22;8369;48.030;11.598;2023-08-21T02:34:10;20.10;99.90
16513;DHT22;8369;48.030;11.598;2023-08-21T02:36:36;20.10;99.90
16513;DHT22;8369;48.030;11.598;2023-08-21T02:39:05;20.10;99.90
16513;DHT22;8369;48.030;11.598;2023-08-21T02:41:31;20.10;99.90
16513;DHT22;8369;48.030;11.598;2023-08-21T02:43:56;20.10;99.90
16513;DHT22;8369;48.030;11.598;2023-08-21T02:46:22;20.00;99.90
16513;DHT22;8369;48.030;11.598;2023-08-21T02:48:49;20.00;99.90
16513;DHT22;8369;48.030;11.598;2023-08-21T02:51:18;20.10;99.90
16513;DHT22;8369;48.030;11.598;2023-08-21T02:53:44;20.00;99.90
16513;DHT22;8369;48.030;11.598;2023-08-21T02:56:10;20.00;99.90
16513;DHT22;8369;48.030;11.598;2023-08-21T02:58:41;20.00;99.90
16513;DHT22;8369;48.030;11.598;2023-08-21T03:01:07;20.00;99.90
16513;DHT22;8369;48.030;11.598;2023-08-21T03:03:33;20.00;99.90
16513;DHT22;8369;48.030;11.598;2023-08-21T03:06:05;20.00;99.90
16513;DHT22;8369;48.030;11.598;2023-08-21T03:08:31;20.00;99.90
16513;DHT22;8369;48.030;11.598;2023-08-21T03:10:57;19.90;99.90
16513;DHT22;8369;48.030;11.598;2023-08-21T03:13:24;19.90;99.90
16513;DHT22;8369;48.030;11.598;2023-08-21T03:15:50;19.90;99.90
16513;DHT22;8369;48.030;11.598;2023-08-21T03:18:16;19.90;99.90
16513;DHT22;8369;48.030;11.598;2023-08-21T03:20:45;19.80;99.90
16513;DHT22;8369;48.030;11.598;2023-08-21T03:23:15;19.80;99.90
16513;DHT22;8369;48.030;11.598;2023-08-21T03:25:40;19.80;99.90
16513;DHT22;8369;48.030;11.598;2023-08-21T03:28:06;19.70;99.90
16513;DHT22;8369;48.030;11.598;2023-08-21T03:30:35;19.70;99.90
16513;DHT22;8369;48.030;11.598;2023-08-21T03:33:04;19.70;99.90
16513;DHT22;8369;48.030;11.598;2023-08-21T03:35:30;19.70;99.90
16513;DHT22;8369;48.030;11.598;2023-08-21T03:37:56;19.70;99.90
16513;DHT22;8369;48.030;11.598;2023-08-21T03:40:24;19.70;99.90
16513;DHT22;8369;48.030;11.598;2023-08-21T03:42:50;19.70;99.90
16513;DHT22;8369;48.030;11.598;2023-08-21T03:45:17;19.70;99.90
16513;DHT22;8369;48.030;11.598;2023-08-21T03:47:43;19.60;99.90
16513;DHT22;8369;48.030;11.598;2023-08-21T03:50:09;19.60;99.90
16513;DHT22;8369;48.030;11.598;2023-08-21T03:52:35;19.60;99.90
16513;DHT22;8369;48.030;11.598;2023-08-21T03:55:02;19.60;99.90
16513;DHT22;8369;48.030;11.598;2023-08-21T03:57:28;19.50;99.90
16513;DHT22;8369;48.030;11.598;2023-08-21T03:59:54;19.50;99.90
16513;DHT22;8369;48.030;11.598;2023-08-21T04:02:20;19.50;99.90
16513;DHT22;8369;48.030;11.598;2023-08-21T04:04:46;19.50;99.90
16513;DHT22;8369;48.030;11.598;2023-08-21T04:07:12;19.50;99.90
16513;DHT22;8369;48.030;11.598;2023-08-21T04:09:38;19.50;99.90
16513;DHT22;8369;48.030;11.598;2023-08-21T04:12:04;19.50;99.90
16513;DHT22;8369;48.030;11.598;2023-08-21T04:14:30;19.50;99.90
16513;DHT22;8369;48.030;11.598;2023-08-21T04:16:58;19.50;99.90
16513;DHT22;8369;48.030;11.598;2023-08-21T04:19:24;19.50;99.90
16513;DHT22;8369;48.030;11.598;2023-08-21T04:21:55;19.40;99.90
16513;DHT22;8369;48.030;11.598;2023-08-21T04:24:21;19.40;99.90
16513;DHT22;8369;48.030;11.598;2023-08-21T04:26:47;19.40;99.90
16513;DHT22;8369;48.030;11.598;2023-08-21T04:29:14;19.40;99.90
16513;DHT22;8369;48.030;11.598;2023-08-21T04:31:40;19.40;99.90
16513;DHT22;8369;48.030;11.598;2023-08-21T04:34:06;19.40;99.90
16513;DHT22;8369;48.030;11.598;2023-08-21T04:36:32;19.40;99.90
16513;DHT22;8369;48.030;11.598;2023-08-21T04:38:58;19.40;99.90
16513;DHT22;8369;48.030;11.598;2023-08-21T04:41:23;19.40;99.90
16513;DHT22;8369;48.030;11.598;2023-08-21T04:43:51;19.40;99.90
16513;DHT22;8369;48.030;11.598;2023-08-21T04:46:19;19.40;99.90
16513;DHT22;8369;48.030;11.598;2023-08-21T04:48:46;19.40;99.90
16513;DHT22;8369;48.030;11.598;2023-08-21T04:51:11;19.40;99.90
16513;DHT22;8369;48.030;11.598;2023-08-21T04:53:37;19.40;99.90
16513;DHT22;8369;48.030;11.598;2023-08-21T04:56:04;19.40;99.90
16513;DHT22;8369;48.030;11.598;2023-08-21T04:58:31;19.40;99.90
16513;DHT22;8369;48.030;11.598;2023-08-21T05:00:57;19.40;99.90
16513;DHT22;8369;48.030;11.598;2023-08-21T05:03:29;19.40;99.90
16513;DHT22;8369;48.030;11.598;2023-08-21T05:06:05;19.40;99.90
16513;DHT22;8369;48.030;11.598;2023-08-21T05:19:45;19.50;99.90
16513;DHT22;8369;48.030;11.598;2023-08-21T05:23:13;19.50;99.90
16513;DHT22;8369;48.030;11.598;2023-08-21T05:40:22;19.90;99.90
16513;DHT22;8369;48.030;11.598;2023-08-21T05:47:59;20.10;99.90
16513;DHT22;8369;48.030;11.598;2023-08-21T05:50:43;20.20;99.90
16513;DHT22;8369;48.030;11.598;2023-08-21T05:54:13;20.30;99.90
16513;DHT22;8369;48.030;11.598;2023-08-21T05:57:52;20.40;99.90
16513;DHT22;8369;48.030;11.598;2023-08-21T06:21:13;21.50;99.90
16513;DHT22;8369;48.030;11.598;2023-08-21T06:23:39;21.80;99.90
16513;DHT22;8369;48.030;11.598;2023-08-21T06:26:05;22.00;99.90
16513;DHT22;8369;48.030;11.598;2023-08-21T06:28:30;22.20;99.90
16513;DHT22;8369;48.030;11.598;2023-08-21T06:30:57;22.40;99.90
16513;DHT22;8369;48.030;11.598;2023-08-21T06:33:30;22.60;99.90
16513;DHT22;8369;48.030;11.598;2023-08-21T06:35:55;22.80;99.90
16513;DHT22;8369;48.030;11.598;2023-08-21T06:38:21;22.90;99.90
16513;DHT22;8369;48.030;11.598;2023-08-21T06:40:47;23.10;99.90
16513;DHT22;8369;48.030;11.598;2023-08-21T06:43:13;23.20;99.90
16513;DHT22;8369;48.030;11.598;2023-08-21T06:45:39;23.30;99.90
16513;DHT22;8369;48.030;11.598;2023-08-21T06:48:04;23.50;99.90
16513;DHT22;8369;48.030;11.598;2023-08-21T06:50:31;23.60;99.90
16513;DHT22;8369;48.030;11.598;2023-08-21T06:53:06;23.70;99.90
16513;DHT22;8369;48.030;11.598;2023-08-21T06:55:31;23.80;99.90
16513;DHT22;8369;48.030;11.598;2023-08-21T06:57:57;23.90;99.90
16513;DHT22;8369;48.030;11.598;2023-08-21T07:00:23;24.10;99.90
16513;DHT22;8369;48.030;11.598;2023-08-21T07:02:49;24.20;99.90
16513;DHT22;8369;48.030;11.598;2023-08-21T07:05:15;24.30;99.90
16513;DHT22;8369;48.030;11.598;2023-08-21T07:07:41;24.40;99.90
16513;DHT22;8369;48.030;11.598;2023-08-21T07:10:07;24.60;99.90
16513;DHT22;8369;48.030;11.598;2023-08-21T07:12:33;24.70;99.90
16513;DHT22;8369;48.030;11.598;2023-08-21T07:14:59;24.80;99.90
16513;DHT22;8369;48.030;11.598;2023-08-21T07:17:25;24.80;99.90
16513;DHT22;8369;48.030;11.598;2023-08-21T07:19:51;24.90;99.90
16513;DHT22;8369;48.030;11.598;2023-08-21T07:22:21;25.00;99.90
16513;DHT22;8369;48.030;11.598;2023-08-21T07:24:47;25.00;99.90
16513;DHT22;8369;48.030;11.598;2023-08-21T07:27:13;25.10;99.90
16513;DHT22;8369;48.030;11.598;2023-08-21T07:29:39;25.20;98.80
16513;DHT22;8369;48.030;11.598;2023-08-21T07:32:05;25.40;98.70
16513;DHT22;8369;48.030;11.598;2023-08-21T07:34:31;25.40;98.90
16513;DHT22;8369;48.030;11.598;2023-08-21T07:36:57;25.50;99.20
16513;DHT22;8369;48.030;11.598;2023-08-21T07:39:23;25.60;99.40
16513;DHT22;8369;48.030;11.598;2023-08-21T07:41:49;25.70;99.40
16513;DHT22;8369;48.030;11.598;2023-08-21T07:44:15;25.80;99.20
16513;DHT22;8369;48.030;11.598;2023-08-21T07:46:41;25.90;99.10
16513;DHT22;8369;48.030;11.598;2023-08-21T07:49:11;26.00;98.90
16513;DHT22;8369;48.030;11.598;2023-08-21T07:51:38;26.10;98.70
16513;DHT22;8369;48.030;11.598;2023-08-21T07:54:03;26.10;98.30
16513;DHT22;8369;48.030;11.598;2023-08-21T07:56:29;26.20;97.50
16513;DHT22;8369;48.030;11.598;2023-08-21T07:58:55;26.30;97.40
16513;DHT22;8369;48.030;11.598;2023-08-21T08:01:21;26.40;97.50
16513;DHT22;8369;48.030;11.598;2023-08-21T08:03:47;26.50;96.90
16513;DHT22;8369;48.030;11.598;2023-08-21T08:06:12;26.60;96.70
16513;DHT22;8369;48.030;11.598;2023-08-21T08:08:39;26.60;96.70
16513;DHT22;8369;48.030;11.598;2023-08-21T08:11:05;26.70;95.40
16513;DHT22;8369;48.030;11.598;2023-08-21T08:13:32;26.70;95.90
16513;DHT22;8369;48.030;11.598;2023-08-21T08:15:58;26.80;95.80
16513;DHT22;8369;48.030;11.598;2023-08-21T08:18:23;26.90;95.40
16513;DHT22;8369;48.030;11.598;2023-08-21T08:20:49;27.00;95.00
16513;DHT22;8369;48.030;11.598;2023-08-21T08:23:19;27.10;94.50
16513;DHT22;8369;48.030;11.598;2023-08-21T08:25:45;27.10;94.70
16513;DHT22;8369;48.030;11.598;2023-08-21T08:28:11;27.20;94.20
16513;DHT22;8369;48.030;11.598;2023-08-21T08:30:39;27.30;94.10
16513;DHT22;8369;48.030;11.598;2023-08-21T08:33:05;27.40;93.70
16513;DHT22;8369;48.030;11.598;2023-08-21T08:35:34;27.40;93.70
16513;DHT22;8369;48.030;11.598;2023-08-21T08:38:23;27.50;93.70
16513;DHT22;8369;48.030;11.598;2023-08-21T08:40:51;27.50;91.90
16513;DHT22;8369;48.030;11.598;2023-08-21T08:43:18;27.60;92.90
16513;DHT22;8369;48.030;11.598;2023-08-21T08:45:45;27.60;92.60
16513;DHT22;8369;48.030;11.598;2023-08-21T08:48:13;27.70;93.20
16513;DHT22;8369;48.030;11.598;2023-08-21T08:50:39;27.80;93.30
16513;DHT22;8369;48.030;11.598;2023-08-21T08:53:06;27.90;92.90
16513;DHT22;8369;48.030;11.598;2023-08-21T08:55:33;28.00;92.70
16513;DHT22;8369;48.030;11.598;2023-08-21T08:57:58;28.10;92.30
16513;DHT22;8369;48.030;11.598;2023-08-21T09:00:25;28.20;92.20
16513;DHT22;8369;48.030;11.598;2023-08-21T09:02:52;28.30;90.80
16513;DHT22;8369;48.030;11.598;2023-08-21T09:05:17;28.40;91.30
16513;DHT22;8369;48.030;11.598;2023-08-21T09:07:43;28.40;91.60
16513;DHT22;8369;48.030;11.598;2023-08-21T09:10:15;28.60;88.30
16513;DHT22;8369;48.030;11.598;2023-08-21T09:12:44;28.70;84.70
16513;DHT22;8369;48.030;11.598;2023-08-21T09:15:10;28.70;83.00
16513;DHT22;8369;48.030;11.598;2023-08-21T09:17:36;28.80;83.30
16513;DHT22;8369;48.030;11.598;2023-08-21T09:20:06;28.80;82.50
16513;DHT22;8369;48.030;11.598;2023-08-21T09:22:33;28.80;80.80
16513;DHT22;8369;48.030;11.598;2023-08-21T09:25:05;28.90;81.10
16513;DHT22;8369;48.030;11.598;2023-08-21T09:27:39;28.90;80.30
16513;DHT22;8369;48.030;11.598;2023-08-21T09:30:09;29.00;81.10
16513;DHT22;8369;48.030;11.598;2023-08-21T09:32:55;29.10;81.10
16513;DHT22;8369;48.030;11.598;2023-08-21T09:35:22;29.20;78.10
16513;DHT22;8369;48.030;11.598;2023-08-21T09:37:48;29.30;77.30
16513;DHT22;8369;48.030;11.598;2023-08-21T09:40:15;29.30;78.20
16513;DHT22;8369;48.030;11.598;2023-08-21T09:42:42;29.40;77.90
16513;DHT22;8369;48.030;11.598;2023-08-21T09:45:08;29.50;77.80
16513;DHT22;8369;48.030;11.598;2023-08-21T09:47:34;29.60;76.40
16513;DHT22;8369;48.030;11.598;2023-08-21T09:50:00;29.70;75.90
16513;DHT22;8369;48.030;11.598;2023-08-21T09:52:26;29.70;73.80
16513;DHT22;8369;48.030;11.598;2023-08-21T09:54:54;29.80;72.90
16513;DHT22;8369;48.030;11.598;2023-08-21T09:57:27;29.90;72.60
16513;DHT22;8369;48.030;11.598;2023-08-21T09:59:53;29.90;69.10
16513;DHT22;8369;48.030;11.598;2023-08-21T10:02:23;30.00;71.20
16513;DHT22;8369;48.030;11.598;2023-08-21T10:04:50;30.00;71.40
16513;DHT22;8369;48.030;11.598;2023-08-21T10:07:21;30.10;70.00
16513;DHT22;8369;48.030;11.598;2023-08-21T10:09:48;30.20;70.00
16513;DHT22;8369;48.030;11.598;2023-08-21T10:12:14;30.30;66.80
16513;DHT22;8369;48.030;11.598;2023-08-21T10:14:42;30.40;66.60
16513;DHT22;8369;48.030;11.598;2023-08-21T10:17:11;30.50;65.60
16513;DHT22;8369;48.030;11.598;2023-08-21T10:19:37;30.50;66.20
16513;DHT22;8369;48.030;11.598;2023-08-21T10:22:03;30.60;67.60
16513;DHT22;8369;48.030;11.598;2023-08-21T10:24:38;30.70;68.30
16513;DHT22;8369;48.030;11.598;2023-08-21T10:27:06;30.80;68.50
16513;DHT22;8369;48.030;11.598;2023-08-21T10:29:33;30.80;66.30
16513;DHT22;8369;48.030;11.598;2023-08-21T10:32:00;30.90;68.50
16513;DHT22;8369;48.030;11.598;2023-08-21T10:34:32;31.00;68.20
16513;DHT22;8369;48.030;11.598;2023-08-21T10:37:13;31.10;66.80
16513;DHT22;8369;48.030;11.598;2023-08-21T10:39:55;31.10;67.40
16513;DHT22;8369;48.030;11.598;2023-08-21T10:42:41;31.20;68.50
16513;DHT22;8369;48.030;11.598;2023-08-21T10:45:12;31.30;67.40
16513;DHT22;8369;48.030;11.598;2023-08-21T10:47:38;31.30;64.80
16513;DHT22;8369;48.030;11.598;2023-08-21T10:50:06;31.40;65.70
16513;DHT22;8369;48.030;11.598;2023-08-21T10:52:37;31.40;66.20
16513;DHT22;8369;48.030;11.598;2023-08-21T10:55:04;31.50;66.50
16513;DHT22;8369;48.030;11.598;2023-08-21T10:57:31;31.60;65.70
16513;DHT22;8369;48.030;11.598;2023-08-21T10:59:58;31.60;65.30
16513;DHT22;8369;48.030;11.598;2023-08-21T11:02:29;31.70;64.20
16513;DHT22;8369;48.030;11.598;2023-08-21T11:04:55;31.80;64.50
16513;DHT22;8369;48.030;11.598;2023-08-21T11:07:22;31.80;63.70
16513;DHT22;8369;48.030;11.598;2023-08-21T11:09:48;31.90;63.10
16513;DHT22;8369;48.030;11.598;2023-08-21T11:12:17;32.00;62.50
16513;DHT22;8369;48.030;11.598;2023-08-21T11:14:47;32.00;62.80
16513;DHT22;8369;48.030;11.598;2023-08-21T11:17:13;32.00;63.30
16513;DHT22;8369;48.030;11.598;2023-08-21T11:19:40;32.10;61.80
16513;DHT22;8369;48.030;11.598;2023-08-21T11:22:06;32.10;62.20
16513;DHT22;8369;48.030;11.598;2023-08-21T11:27:08;32.20;59.90
16513;DHT22;8369;48.030;11.598;2023-08-21T11:29:48;32.30;60.50
16513;DHT22;8369;48.030;11.598;2023-08-21T11:32:18;32.40;59.50
16513;DHT22;8369;48.030;11.598;2023-08-21T11:34:50;32.40;60.20
16513;DHT22;8369;48.030;11.598;2023-08-21T11:37:20;32.50;60.90
16513;DHT22;8369;48.030;11.598;2023-08-21T11:39:54;32.50;60.90
16513;DHT22;8369;48.030;11.598;2023-08-21T11:42:28;32.50;61.50
16513;DHT22;8369;48.030;11.598;2023-08-21T11:44:53;32.60;61.30
16513;DHT22;8369;48.030;11.598;2023-08-21T11:47:21;32.60;61.90
16513;DHT22;8369;48.030;11.598;2023-08-21T11:49:47;32.60;62.10
16513;DHT22;8369;48.030;11.598;2023-08-21T11:52:22;32.70;61.50
16513;DHT22;8369;48.030;11.598;2023-08-21T11:54:53;32.70;61.80
16513;DHT22;8369;48.030;11.598;2023-08-21T11:57:20;32.80;61.30
16513;DHT22;8369;48.030;11.598;2023-08-21T11:59:54;32.80;61.60
16513;DHT22;8369;48.030;11.598;2023-08-21T12:02:27;32.80;61.00
16513;DHT22;8369;48.030;11.598;2023-08-21T12:05:14;32.80;60.90
16513;DHT22;8369;48.030;11.598;2023-08-21T12:07:40;32.90;61.20
16513;DHT22;8369;48.030;11.598;2023-08-21T12:10:06;32.90;61.20
16513;DHT22;8369;48.030;11.598;2023-08-21T12:12:32;32.90;60.40
16513;DHT22;8369;48.030;11.598;2023-08-21T12:14:57;32.90;60.70
16513;DHT22;8369;48.030;11.598;2023-08-21T12:17:23;33.00;61.00
16513;DHT22;8369;48.030;11.598;2023-08-21T12:19:49;33.00;61.80
16513;DHT22;8369;48.030;11.598;2023-08-21T12:22:15;33.00;62.20
16513;DHT22;8369;48.030;11.598;2023-08-21T12:24:40;32.90;59.80
16513;DHT22;8369;48.030;11.598;2023-08-21T12:27:06;32.90;60.40
16513;DHT22;8369;48.030;11.598;2023-08-21T12:29:32;32.90;60.40
16513;DHT22;8369;48.030;11.598;2023-08-21T12:31:58;32.90;60.70
16513;DHT22;8369;48.030;11.598;2023-08-21T12:34:23;32.90;59.70
16513;DHT22;8369;48.030;11.598;2023-08-21T12:36:52;33.00;59.90
16513;DHT22;8369;48.030;11.598;2023-08-21T12:39:18;33.00;59.50
16513;DHT22;8369;48.030;11.598;2023-08-21T12:41:47;33.00;59.40
16513;DHT22;8369;48.030;11.598;2023-08-21T12:44:13;33.00;59.90
16513;DHT22;8369;48.030;11.598;2023-08-21T12:46:38;33.00;59.40
16513;DHT22;8369;48.030;11.598;2023-08-21T12:49:04;33.00;58.70
16513;DHT22;8369;48.030;11.598;2023-08-21T12:51:30;32.90;58.70
16513;DHT22;8369;48.030;11.598;2023-08-21T12:53:56;32.90;59.10
16513;DHT22;8369;48.030;11.598;2023-08-21T12:56:22;32.90;59.80
16513;DHT22;8369;48.030;11.598;2023-08-21T12:58:48;32.90;59.20
16513;DHT22;8369;48.030;11.598;2023-08-21T13:01:14;32.90;59.80
16513;DHT22;8369;48.030;11.598;2023-08-21T13:03:44;32.90;60.40
16513;DHT22;8369;48.030;11.598;2023-08-21T13:06:10;32.90;59.90
16513;DHT22;8369;48.030;11.598;2023-08-21T13:08:36;32.90;60.40
16513;DHT22;8369;48.030;11.598;2023-08-21T13:11:02;33.00;60.40
16513;DHT22;8369;48.030;11.598;2023-08-21T13:13:28;33.00;60.40
16513;DHT22;8369;48.030;11.598;2023-08-21T13:15:54;33.10;60.70
16513;DHT22;8369;48.030;11.598;2023-08-21T13:18:20;33.10;60.40
16513;DHT22;8369;48.030;11.598;2023-08-21T13:20:46;33.20;60.70
16513;DHT22;8369;48.030;11.598;2023-08-21T13:23:14;33.20;60.40
16513;DHT22;8369;48.030;11.598;2023-08-21T13:25:40;33.20;60.50
16513;DHT22;8369;48.030;11.598;2023-08-21T13:28:06;33.30;60.20
16513;DHT22;8369;48.030;11.598;2023-08-21T13:30:31;33.30;59.80
16513;DHT22;8369;48.030;11.598;2023-08-21T13:32:57;33.30;59.70
16513;DHT22;8369;48.030;11.598;2023-08-21T13:35:23;33.30;59.70
16513;DHT22;8369;48.030;11.598;2023-08-21T13:37:50;33.30;59.70
16513;DHT22;8369;48.030;11.598;2023-08-21T13:40:16;33.30;59.90
16513;DHT22;8369;48.030;11.598;2023-08-21T13:42:46;33.30;60.20
16513;DHT22;8369;48.030;11.598;2023-08-21T13:45:14;33.30;59.80
16513;DHT22;8369;48.030;11.598;2023-08-21T13:47:42;33.30;59.40
16513;DHT22;8369;48.030;11.598;2023-08-21T13:50:13;33.30;58.90
16513;DHT22;8369;48.030;11.598;2023-08-21T13:52:40;33.30;58.80
16513;DHT22;8369;48.030;11.598;2023-08-21T13:55:09;33.30;58.90
16513;DHT22;8369;48.030;11.598;2023-08-21T13:57:37;33.30;58.80
16513;DHT22;8369;48.030;11.598;2023-08-21T14:00:05;33.30;59.20
16513;DHT22;8369;48.030;11.598;2023-08-21T14:02:37;33.30;59.80
16513;DHT22;8369;48.030;11.598;2023-08-21T14:05:07;33.30;58.90
16513;DHT22;8369;48.030;11.598;2023-08-21T14:07:34;33.30;59.40
16513;DHT22;8369;48.030;11.598;2023-08-21T14:10:00;33.20;59.50
16513;DHT22;8369;48.030;11.598;2023-08-21T14:12:28;33.20;59.10
16513;DHT22;8369;48.030;11.598;2023-08-21T14:15:13;33.20;59.40
16513;DHT22;8369;48.030;11.598;2023-08-21T14:17:39;33.20;58.50
16513;DHT22;8369;48.030;11.598;2023-08-21T14:20:06;33.10;59.50
16513;DHT22;8369;48.030;11.598;2023-08-21T14:22:33;33.10;59.70
16513;DHT22;8369;48.030;11.598;2023-08-21T14:24:59;33.10;60.10
16513;DHT22;8369;48.030;11.598;2023-08-21T14:27:24;33.10;59.20
16513;DHT22;8369;48.030;11.598;2023-08-21T14:29:53;33.20;59.10
16513;DHT22;8369;48.030;11.598;2023-08-21T14:32:18;33.20;58.70
16513;DHT22;8369;48.030;11.598;2023-08-21T14:34:47;33.20;58.70
16513;DHT22;8369;48.030;11.598;2023-08-21T14:37:13;33.20;58.20
16513;DHT22;8369;48.030;11.598;2023-08-21T14:39:41;33.20;58.90
16513;DHT22;8369;48.030;11.598;2023-08-21T14:42:08;33.30;58.40
16513;DHT22;8369;48.030;11.598;2023-08-21T14:44:34;33.30;57.20
16513;DHT22;8369;48.030;11.598;2023-08-21T14:47:03;33.30;57.70
16513;DHT22;8369;48.030;11.598;2023-08-21T14:49:28;33.30;58.40
16513;DHT22;8369;48.030;11.598;2023-08-21T14:51:54;33.30;58.70
16513;DHT22;8369;48.030;11.598;2023-08-21T14:54:20;33.30;58.90
16513;DHT22;8369;48.030;11.598;2023-08-21T14:56:46;33.30;58.90
16513;DHT22;8369;48.030;11.598;2023-08-21T14:59:12;33.30;59.10
16513;DHT22;8369;48.030;11.598;2023-08-21T15:01:38;33.20;59.70
16513;DHT22;8369;48.030;11.598;2023-08-21T15:04:05;33.20;59.80
16513;DHT22;8369;48.030;11.598;2023-08-21T15:06:31;33.20;59.40
16513;DHT22;8369;48.030;11.598;2023-08-21T15:08:57;33.20;59.50
16513;DHT22;8369;48.030;11.598;2023-08-21T15:11:22;33.20;59.50
16513;DHT22;8369;48.030;11.598;2023-08-21T15:13:48;33.20;59.70
16513;DHT22;8369;48.030;11.598;2023-08-21T15:16:14;33.20;59.70
16513;DHT22;8369;48.030;11.598;2023-08-21T15:18:40;33.10;59.40
16513;DHT22;8369;48.030;11.598;2023-08-21T15:21:05;33.10;59.70
16513;DHT22;8369;48.030;11.598;2023-08-21T15:23:34;33.10;59.70
16513;DHT22;8369;48.030;11.598;2023-08-21T15:26:00;33.00;59.20
16513;DHT22;8369;48.030;11.598;2023-08-21T15:28:26;33.00;58.90
16513;DHT22;8369;48.030;11.598;2023-08-21T15:30:51;33.00;59.50
16513;DHT22;8369;48.030;11.598;2023-08-21T15:33:17;33.00;60.10
16513;DHT22;8369;48.030;11.598;2023-08-21T15:35:43;32.90;60.40
16513;DHT22;8369;48.030;11.598;2023-08-21T15:38:11;32.90;60.20
16513;DHT22;8369;48.030;11.598;2023-08-21T15:40:37;32.90;60.40
16513;DHT22;8369;48.030;11.598;2023-08-21T15:43:04;32.90;60.90
16513;DHT22;8369;48.030;11.598;2023-08-21T15:45:36;32.90;60.70
16513;DHT22;8369;48.030;11.598;2023-08-21T15:48:02;32.80;61.30
16513;DHT22;8369;48.030;11.598;2023-08-21T15:50:28;32.80;61.00
16513;DHT22;8369;48.030;11.598;2023-08-21T15:52:54;32.80;61.00
16513;DHT22;8369;48.030;11.598;2023-08-21T15:55:20;32.80;60.70
16513;DHT22;8369;48.030;11.598;2023-08-21T15:57:45;32.70;61.30
16513;DHT22;8369;48.030;11.598;2023-08-21T16:00:11;32.70;61.60
16513;DHT22;8369;48.030;11.598;2023-08-21T16:02:38;32.70;61.50
16513;DHT22;8369;48.030;11.598;2023-08-21T16:05:06;32.60;62.10
16513;DHT22;8369;48.030;11.598;2023-08-21T16:07:33;32.60;62.70
16513;DHT22;8369;48.030;11.598;2023-08-21T16:09:59;32.60;63.10
16513;DHT22;8369;48.030;11.598;2023-08-21T16:12:25;32.50;63.30
16513;DHT22;8369;48.030;11.598;2023-08-21T16:14:50;32.40;63.10
16513;DHT22;8369;48.030;11.598;2023-08-21T16:17:16;32.40;63.90
16513;DHT22;8369;48.030;11.598;2023-08-21T16:19:42;32.30;64.00
16513;DHT22;8369;48.030;11.598;2023-08-21T16:22:08;32.30;64.20
16513;DHT22;8369;48.030;11.598;2023-08-21T16:24:34;32.20;64.40
16513;DHT22;8369;48.030;11.598;2023-08-21T16:27:00;32.10;64.40
16513;DHT22;8369;48.030;11.598;2023-08-21T16:29:26;32.00;64.80
16513;DHT22;8369;48.030;11.598;2023-08-21T16:31:52;31.90;65.90